Terminal Aerodrome Forecast
Issued by NWS Amarillo, TX

Home | Current Version | Previous Version | Text Only | Print | Product List | Glossary On
Versions: 1 2 3 4 5 6 7 8 9 10 11 12 13 14
434
FTUS44 KAMA 262320
TAFAMA
TAF
KAMA 262320Z 2700/2724 21020G28KT P6SM FEW100
     FM270100 22014KT P6SM SKC
     FM270800 24008KT P6SM SKC
     FM271400 24017KT P6SM FEW100
     FM272200 31016KT P6SM FEW110=

USA.gov is the U.S. government's official web portal to all federal, state and local government web resources and services.